首页
METAR-TAF:

METAR-TAF

机场 :

坦帕國際機場

坦帕, 佛罗里达州, 美国

纬度: 27-57-41N, 经度: 082-32-25W, 海拔: 8米

当前天气观测

该预报发布于44分钟前的22:53 UTC
风速7节,风向
温度 25°C
湿度 69%
气压 1015 hPa
能見度: 16.1公里
少量云层高于3500英尺
散云层高于25000英尺

METAR: KTPA 022253Z 18007KT 10SM FEW035 SCT250 25/19 A2998 RMK AO2 SLP151 T02500194

时间: 18:37 (23:37 UTC)

预报

该预报发布于2小时和35分钟前的21:02 UTC
预报有效从02日的 21点(UTC)到 03日的 24点(UTC)
风速9节,风向西南
能見度: 10公里
散云层高于3000英尺
多云层高于25000英尺
从 03日的 0300点(UTC)
风速5节,风向南转西南
能見度: 9.7公里
多云层高于1500英尺
多云层高于25000英尺
轻雾
短暂存在
从 03日的 03点(UTC)到 03日的 07点(UTC)
多云层高于300英尺
从 03日的 0900点(UTC)
风速8节,风向南转西南
能見度: 9.7公里
多云层高于1500英尺
阴天层高于25000英尺
轻雾
从 03日的 1200点(UTC)
风速9节,风向西南
能見度: 10公里
多云层高于2500英尺
阴天层高于25000英尺
附近有阵雨
从 03日的 1500点(UTC)
风速10节,风向西转西北
能見度: 10公里
多云层高于1500英尺
阴天层高于25000英尺
附近有阵雨
从 03日的 1900点(UTC)
风速11节,风向西转西北
能見度: 10公里
多云层高于25000英尺

TAF: KTPA 022102Z 0221/0324 22009KT P6SM SCT030 BKN250 FM030300 20005KT 6SM BR BKN015 BKN250 TEMPO 0303/0307 BKN003 FM030900 21008KT 6SM BR BKN015 OVC250 FM031200 23009KT P6SM VCSH BKN025 OVC250 FM031500 29010KT P6SM VCSH BKN015 OVC250 FM031900 30011KT P6SM BKN250

超过4000个机场的气象观测和天气预报(METAR&TAF报告)。

可查询的气象台以黄色和红色小点在地图上表示。

将鼠标移到小点上方,可查看气象台名称。

然后点击查看天气观测和预报。

如需切换地图:点击带黑十字的绿色按钮放大地图;点击带横线的绿色按钮缩小地图;或者点击绿色箭头查看邻近地区的地图。


METAR-TAF: